createdAt,value
2018-08-09T00:00:28.099Z,55.55
2018-08-09T00:01:27.936Z,55.55
2018-08-09T00:02:27.882Z,55.65
2018-08-09T00:03:27.862Z,55.75
2018-08-09T00:04:27.845Z,55.94
2018-08-09T00:05:27.812Z,55.94
2018-08-09T00:06:27.781Z,55.65
2018-08-09T00:07:27.741Z,55.75
2018-08-09T00:08:27.715Z,55.63
2018-08-09T00:09:27.676Z,55.53
2018-08-09T00:10:27.757Z,55.53
2018-08-09T00:11:27.768Z,55.73
2018-08-09T00:12:27.591Z,55.92
2018-08-09T00:13:27.595Z,55.53
2018-08-09T00:14:27.528Z,55.43
2018-08-09T00:15:27.506Z,55.63
2018-08-09T00:16:27.490Z,55.53
2018-08-09T00:17:27.640Z,55.63
2018-08-09T00:18:27.450Z,55.63
2018-08-09T00:19:27.472Z,55.63
2018-08-09T00:20:27.363Z,55.92
2018-08-09T00:21:27.339Z,55.33
2018-08-09T00:22:27.301Z,55.43
2018-08-09T00:23:27.267Z,55.63
2018-08-09T00:24:27.240Z,55.82
2018-08-09T00:25:27.362Z,56.60
2018-08-09T00:26:27.191Z,56.01
2018-08-09T00:27:27.166Z,56.01
2018-08-09T00:28:27.128Z,55.33
2018-08-09T00:29:27.295Z,55.73
2018-08-09T00:30:27.262Z,55.63
2018-08-09T00:31:27.045Z,56.11
2018-08-09T00:32:27.010Z,56.50
2018-08-09T00:33:26.967Z,56.11
2018-08-09T00:34:26.944Z,56.60
2018-08-09T00:35:27.059Z,56.79
2018-08-09T00:36:26.895Z,57.28
2018-08-09T00:37:26.855Z,56.30
2018-08-09T00:38:26.834Z,56.50
2018-08-09T00:39:26.807Z,55.89
2018-08-09T00:40:26.768Z,55.63
2018-08-09T00:41:26.731Z,55.99
2018-08-09T00:42:26.719Z,56.30
2018-08-09T00:43:26.675Z,56.37
2018-08-09T00:44:26.650Z,56.30
2018-08-09T00:45:26.614Z,55.89
2018-08-09T00:46:26.944Z,56.67
2018-08-09T00:47:26.560Z,57.15
2018-08-09T00:48:26.535Z,57.15
2018-08-09T00:49:26.504Z,57.18
2018-08-09T00:50:26.465Z,57.15
2018-08-09T00:51:26.435Z,57.15
2018-08-09T00:52:26.409Z,56.96
2018-08-09T00:53:26.400Z,56.96
2018-08-09T00:54:26.346Z,56.86
2018-08-09T00:55:26.324Z,56.86
2018-08-09T00:56:26.306Z,56.28
2018-08-09T00:57:26.263Z,56.47
2018-08-09T00:58:26.232Z,56.28
2018-08-09T00:59:26.194Z,55.89
2018-08-09T01:00:26.180Z,56.18
2018-08-09T01:01:26.142Z,56.09
2018-08-09T01:02:26.108Z,56.28
2018-08-09T01:03:26.079Z,56.57
2018-08-09T01:04:26.052Z,56.76
2018-08-09T01:05:26.039Z,57.06
2018-08-09T01:06:25.981Z,57.06
2018-08-09T01:07:25.967Z,57.54
2018-08-09T01:08:25.952Z,57.06
2018-08-09T01:09:25.903Z,57.54
2018-08-09T01:10:25.883Z,57.83
2018-08-09T01:11:25.865Z,57.80
2018-08-09T01:12:26.145Z,57.80
2018-08-09T01:13:25.939Z,57.90
2018-08-09T01:16:08.020Z,58.39
2018-08-09T01:17:07.976Z,57.90
2018-08-09T01:18:07.971Z,58.29
2018-08-09T01:19:08.014Z,58.19
2018-08-09T01:20:07.897Z,58.39
2018-08-09T01:21:08.078Z,57.51
2018-08-09T01:22:07.837Z,57.51
2018-08-09T01:23:07.816Z,57.64
2018-08-09T01:24:07.786Z,57.70
2018-08-09T01:25:07.812Z,57.44
2018-08-09T01:26:07.736Z,57.90
2018-08-09T01:27:07.717Z,57.90
2018-08-09T01:28:07.653Z,58.19
2018-08-09T01:29:07.627Z,58.09
2018-08-09T01:30:07.623Z,58.09
2018-08-09T01:31:07.636Z,58.09
2018-08-09T01:32:07.561Z,58.19
2018-08-09T01:33:07.502Z,58.67
2018-08-09T01:34:07.473Z,58.67
2018-08-09T01:35:07.450Z,58.36
2018-08-09T01:36:07.422Z,58.87
2018-08-09T01:37:07.381Z,58.74
2018-08-09T01:38:07.359Z,58.77
2018-08-09T01:39:07.321Z,58.48
2018-08-09T01:40:07.308Z,58.58
2018-08-09T01:41:07.261Z,58.77
2018-08-09T01:42:07.230Z,58.77
2018-08-09T01:43:07.227Z,58.84
2018-08-09T01:44:07.170Z,58.55
2018-08-09T01:45:07.193Z,58.45
2018-08-09T01:46:07.109Z,58.55
2018-08-09T01:47:07.091Z,58.84
2018-08-09T01:48:07.082Z,58.55
2018-08-09T01:49:07.027Z,58.55
2018-08-09T01:50:07.001Z,58.74
2018-08-09T01:51:06.964Z,58.94
2018-08-09T01:52:06.929Z,59.52
2018-08-09T01:53:06.934Z,59.13
2018-08-09T01:54:06.878Z,58.94
2018-08-09T01:55:06.855Z,58.84
2018-08-09T01:56:06.860Z,58.84
2018-08-09T01:57:06.954Z,59.03
2018-08-09T01:58:06.752Z,58.74
2018-08-09T01:59:06.732Z,58.65
2018-08-09T02:00:06.704Z,58.55
2018-08-09T02:01:06.671Z,58.55
2018-08-09T02:02:06.692Z,58.45
2018-08-09T02:03:06.802Z,58.74
2018-08-09T02:04:06.584Z,58.45
2018-08-09T02:05:06.555Z,58.74
2018-08-09T02:06:06.541Z,58.45
2018-08-09T02:07:06.505Z,58.94
2018-08-09T02:08:06.464Z,58.84
2018-08-09T02:09:06.417Z,58.65
2018-08-09T02:10:06.416Z,58.84
2018-08-09T02:11:06.358Z,59.52
2018-08-09T02:12:06.333Z,59.13
2018-08-09T02:13:06.315Z,59.33
2018-08-09T02:14:06.279Z,59.23
2018-08-09T02:15:06.242Z,59.81
2018-08-09T02:16:06.279Z,59.71
2018-08-09T02:17:06.182Z,59.69
2018-08-09T02:18:06.178Z,59.59
2018-08-09T02:19:06.140Z,60.17
2018-08-09T02:20:06.096Z,59.97
2018-08-09T02:21:06.061Z,60.65
2018-08-09T02:22:06.035Z,60.07
2018-08-09T02:23:06.003Z,60.07
2018-08-09T02:25:05.950Z,60.36
2018-08-09T02:26:05.910Z,60.85
2018-08-09T02:27:05.887Z,61.33
2018-08-09T02:28:05.846Z,61.43
2018-08-09T02:29:06.036Z,61.21
2018-08-09T02:30:05.811Z,61.04
2018-08-09T02:31:05.819Z,61.21
2018-08-09T02:32:05.727Z,61.49
2018-08-09T02:33:05.706Z,60.72
2018-08-09T02:34:05.700Z,60.72
2018-08-09T02:35:05.890Z,60.75
2018-08-09T02:36:05.650Z,61.11
2018-08-09T02:37:05.579Z,61.11
2018-08-09T02:38:05.550Z,60.82
2018-08-09T02:39:05.517Z,61.11
2018-08-09T02:40:05.495Z,61.40
2018-08-09T02:41:05.452Z,61.30
2018-08-09T02:42:05.432Z,61.21
2018-08-09T02:43:05.401Z,61.59
2018-08-09T02:44:05.380Z,61.30
2018-08-09T02:45:05.334Z,61.79
2018-08-09T02:46:05.307Z,61.59
2018-08-09T02:47:05.270Z,61.40
2018-08-09T02:48:05.255Z,61.49
2018-08-09T02:49:05.207Z,61.59
2018-08-09T02:50:05.190Z,61.79
2018-08-09T02:51:05.162Z,61.79
2018-08-09T02:52:05.133Z,61.49
2018-08-09T02:53:05.089Z,61.30
2018-08-09T02:54:05.087Z,61.59
2018-08-09T02:55:05.040Z,61.21
2018-08-09T02:56:05.011Z,61.88
2018-08-09T02:57:04.968Z,61.98
2018-08-09T02:58:04.952Z,61.49
2018-08-09T02:59:04.905Z,61.30
2018-08-09T03:00:04.879Z,61.49
2018-08-09T03:01:05.055Z,61.01
2018-08-09T03:02:04.816Z,60.94
2018-08-09T03:03:04.798Z,61.33
2018-08-09T03:04:04.758Z,60.82
2018-08-09T03:05:04.728Z,61.59
2018-08-09T03:06:04.697Z,61.98
2018-08-09T03:07:04.685Z,61.11
2018-08-09T03:08:04.653Z,61.21
2018-08-09T03:09:04.612Z,61.79
2018-08-09T03:10:04.574Z,61.69
2018-08-09T03:11:04.543Z,61.69
2018-08-09T03:12:04.511Z,61.98
2018-08-09T03:13:04.486Z,61.98
2018-08-09T03:14:04.456Z,62.27
2018-08-09T03:15:04.431Z,62.27
2018-08-09T03:16:04.399Z,62.17
2018-08-09T03:17:04.362Z,62.07
2018-08-09T03:18:04.332Z,61.98
2018-08-09T03:19:04.305Z,62.17
2018-08-09T03:20:04.285Z,62.17
2018-08-09T03:21:04.239Z,62.46
2018-08-09T03:22:04.211Z,62.56
2018-08-09T03:23:04.188Z,62.56
2018-08-09T03:24:04.146Z,62.37
2018-08-09T03:25:04.120Z,62.46
2018-08-09T03:26:04.094Z,62.46
2018-08-09T03:27:04.062Z,62.56
2018-08-09T03:28:04.032Z,62.37
2018-08-09T03:29:03.995Z,62.46
2018-08-09T03:30:03.974Z,62.43
2018-08-09T03:31:03.939Z,62.46
2018-08-09T03:32:03.908Z,62.27
2018-08-09T03:33:04.231Z,62.34
2018-08-09T03:34:03.844Z,62.34
2018-08-09T03:35:03.818Z,62.53
2018-08-09T03:36:03.784Z,63.21
2018-08-09T03:37:03.757Z,63.11
2018-08-09T03:38:03.735Z,62.92
2018-08-09T03:39:03.795Z,63.11
2018-08-09T03:40:03.664Z,63.01
2018-08-09T03:41:03.633Z,63.31
2018-08-09T03:42:03.602Z,63.11
2018-08-09T03:43:03.570Z,62.82
2018-08-09T03:44:03.541Z,63.01
2018-08-09T03:45:03.515Z,63.21
2018-08-09T03:46:03.480Z,63.31
2018-08-09T03:47:03.445Z,63.40
2018-08-09T03:48:03.418Z,63.40
2018-08-09T03:49:03.436Z,63.69
2018-08-09T03:50:03.555Z,63.98
2018-08-09T03:51:03.326Z,63.89
2018-08-09T03:52:03.291Z,64.17
2018-08-09T03:53:03.263Z,64.07
2018-08-09T03:54:03.236Z,63.98
2018-08-09T03:55:03.208Z,63.89
2018-08-09T03:56:03.169Z,63.79
2018-08-09T03:57:03.143Z,63.85
2018-08-09T03:58:03.109Z,63.85
2018-08-09T03:59:03.080Z,63.95
2018-08-09T04:00:03.053Z,64.14
2018-08-09T04:01:03.036Z,64.34
2018-08-09T04:02:02.986Z,64.04
2018-08-09T04:03:02.958Z,64.14
2018-08-09T04:04:02.925Z,64.72
2018-08-09T04:05:02.901Z,64.53
2018-08-09T04:06:03.067Z,64.34
2018-08-09T04:07:02.838Z,64.62
2018-08-09T04:08:02.810Z,64.62
2018-08-09T04:09:02.780Z,64.43
2018-08-09T04:10:02.748Z,64.72
2018-08-09T04:11:02.719Z,64.62
2018-08-09T04:12:02.922Z,64.82
2018-08-09T04:13:02.648Z,64.82
2018-08-09T04:14:02.621Z,65.01
2018-08-09T04:15:02.601Z,65.20
2018-08-09T04:16:02.564Z,65.30
2018-08-09T04:17:02.537Z,65.30
2018-08-09T04:18:02.501Z,64.92
2018-08-09T04:19:02.471Z,65.11
2018-08-09T04:20:02.457Z,65.50
2018-08-09T04:21:02.407Z,65.88
2018-08-09T04:22:02.375Z,65.69
2018-08-09T04:23:02.352Z,65.59
2018-08-09T04:24:02.324Z,65.59
2018-08-09T04:25:02.283Z,65.79
2018-08-09T04:26:02.254Z,65.88
2018-08-09T04:27:02.227Z,65.59
2018-08-09T04:28:02.195Z,65.50
2018-08-09T04:29:02.161Z,65.56
2018-08-09T04:30:02.128Z,65.59
2018-08-09T04:31:02.099Z,66.17
2018-08-09T04:32:02.066Z,66.37
2018-08-09T04:33:02.043Z,66.75
2018-08-09T04:34:02.004Z,66.27
2018-08-09T04:35:01.973Z,66.47
2018-08-09T04:36:01.943Z,66.85
2018-08-09T04:37:01.918Z,66.53
2018-08-09T04:38:02.010Z,66.37
2018-08-09T04:39:01.851Z,66.47
2018-08-09T04:40:01.825Z,66.47
2018-08-09T04:41:01.795Z,66.47
2018-08-09T04:42:01.767Z,66.91
2018-08-09T04:43:01.730Z,66.53
2018-08-09T04:44:01.712Z,66.63
2018-08-09T04:45:01.665Z,66.91
2018-08-09T04:46:01.647Z,66.24
2018-08-09T04:47:01.609Z,66.43
2018-08-09T04:48:01.574Z,66.24
2018-08-09T04:49:01.540Z,66.33
2018-08-09T04:50:01.513Z,66.17
2018-08-09T04:51:01.484Z,65.30
2018-08-09T04:52:01.453Z,65.20
2018-08-09T04:53:01.426Z,65.11
2018-08-09T04:54:01.391Z,65.01
2018-08-09T04:55:01.358Z,64.53
2018-08-09T04:56:01.326Z,64.62
2018-08-09T04:57:01.304Z,64.43
2018-08-09T04:58:01.306Z,64.04
2018-08-09T04:59:01.234Z,63.85
2018-08-09T05:00:01.204Z,64.04
2018-08-09T05:01:01.185Z,64.01
2018-08-09T05:02:01.143Z,64.04
2018-08-09T05:03:01.118Z,64.14
2018-08-09T05:04:01.075Z,63.95
2018-08-09T05:05:01.048Z,64.04
2018-08-09T05:06:01.021Z,64.14
2018-08-09T05:07:00.990Z,63.85
2018-08-09T05:08:01.003Z,64.14
2018-08-09T05:09:00.926Z,63.56
2018-08-09T05:10:00.914Z,63.85
2018-08-09T05:11:00.870Z,63.66
2018-08-09T05:12:00.832Z,64.14
2018-08-09T05:13:00.804Z,64.43
2018-08-09T05:14:00.808Z,64.43
2018-08-09T05:15:00.743Z,64.62
2018-08-09T05:16:00.721Z,65.01
2018-08-09T05:17:00.688Z,64.72
2018-08-09T05:18:00.647Z,65.01
2018-08-09T05:19:00.620Z,65.24
2018-08-09T05:20:00.581Z,65.11
2018-08-09T05:21:00.551Z,64.72
2018-08-09T05:22:00.831Z,64.95
2018-08-09T05:23:00.530Z,64.85
2018-08-09T05:24:00.471Z,64.92
2018-08-09T05:25:00.445Z,65.05
2018-08-09T05:26:00.398Z,65.20
2018-08-09T05:27:00.377Z,64.85
2018-08-09T05:28:00.349Z,65.05
2018-08-09T05:29:00.311Z,64.82
2018-08-09T05:30:00.313Z,64.82
2018-08-09T05:31:00.246Z,65.01
2018-08-09T05:32:00.212Z,64.82
2018-08-09T05:33:00.188Z,64.85
2018-08-09T05:34:00.157Z,64.92
2018-08-09T05:35:00.128Z,64.92
2018-08-09T05:36:00.093Z,65.11
2018-08-09T05:37:00.067Z,65.11
2018-08-09T05:38:00.029Z,65.01
2018-08-09T05:39:00.010Z,64.43
2018-08-09T05:39:59.977Z,64.43
2018-08-09T05:40:59.938Z,64.62
2018-08-09T05:41:59.909Z,64.62
2018-08-09T05:43:00.278Z,64.72
2018-08-09T05:43:59.848Z,65.11
2018-08-09T05:44:59.820Z,64.53
2018-08-09T05:45:59.788Z,64.82
2018-08-09T05:46:59.759Z,64.92
2018-08-09T05:47:59.728Z,65.01
2018-08-09T05:48:59.890Z,65.01
2018-08-09T05:49:59.661Z,65.14
2018-08-09T05:50:59.634Z,64.72
2018-08-09T05:51:59.603Z,64.72
2018-08-09T05:52:59.657Z,64.92
2018-08-09T05:53:59.535Z,65.01
2018-08-09T05:54:59.512Z,64.72
2018-08-09T05:55:59.506Z,65.11
2018-08-09T05:56:59.444Z,64.92
2018-08-09T05:57:59.416Z,64.62
2018-08-09T05:59:59.352Z,65.01
2018-08-09T06:00:59.321Z,65.01
2018-08-09T06:01:59.294Z,65.01
2018-08-09T06:02:59.271Z,64.92
2018-08-09T06:03:59.229Z,65.01
2018-08-09T06:04:59.214Z,64.62
2018-08-09T06:05:59.168Z,64.92
2018-08-09T06:06:59.143Z,64.72
2018-08-09T06:07:59.106Z,64.82
2018-08-09T06:08:59.076Z,64.82
2018-08-09T06:09:59.047Z,64.82
2018-08-09T06:10:59.015Z,64.62
2018-08-09T06:11:58.983Z,65.30
2018-08-09T06:12:58.956Z,65.30
2018-08-09T06:13:58.922Z,65.01
2018-08-09T06:14:59.047Z,65.30
2018-08-09T06:15:58.866Z,65.50
2018-08-09T06:16:58.836Z,65.40
2018-08-09T06:17:58.806Z,65.59
2018-08-09T06:18:58.788Z,65.30
2018-08-09T06:19:58.733Z,65.88
2018-08-09T06:20:59.007Z,65.50
2018-08-09T06:21:58.676Z,65.50
2018-08-09T06:22:58.641Z,65.30
2018-08-09T06:23:58.608Z,65.79
2018-08-09T06:24:58.578Z,65.40
2018-08-09T06:25:58.646Z,65.88
2018-08-09T06:26:58.685Z,65.59
2018-08-09T06:27:58.485Z,65.59
2018-08-09T06:28:58.460Z,65.59
2018-08-09T06:29:58.429Z,65.59
2018-08-09T06:30:58.397Z,65.50
2018-08-09T06:31:58.467Z,65.66
2018-08-09T06:32:58.339Z,66.05
2018-08-09T06:33:58.303Z,66.08
2018-08-09T06:34:58.273Z,66.17
2018-08-09T06:35:58.240Z,66.17
2018-08-09T06:36:58.232Z,66.17
2018-08-09T06:37:58.178Z,66.14
2018-08-09T06:38:58.148Z,65.88
2018-08-09T06:39:58.123Z,65.98
2018-08-09T06:40:58.088Z,66.37
2018-08-09T06:41:58.064Z,66.47
2018-08-09T06:42:58.029Z,66.37
2018-08-09T06:43:57.989Z,66.47
2018-08-09T06:44:57.964Z,66.08
2018-08-09T06:45:57.933Z,66.37
2018-08-09T06:46:57.909Z,66.37
2018-08-09T06:47:57.876Z,66.47
2018-08-09T06:48:57.838Z,66.47
2018-08-09T06:49:57.809Z,66.82
2018-08-09T06:50:57.780Z,66.82
2018-08-09T06:51:57.743Z,66.91
2018-08-09T06:52:57.712Z,66.82
2018-08-09T06:53:57.684Z,66.82
2018-08-09T06:54:57.662Z,67.01
2018-08-09T06:55:57.626Z,67.21
2018-08-09T06:56:57.588Z,67.21
2018-08-09T06:59:37.898Z,67.40
2018-08-09T07:00:37.521Z,67.21
2018-08-09T07:01:37.536Z,67.30
2018-08-09T07:02:37.459Z,67.69
2018-08-09T07:03:37.433Z,67.40
2018-08-09T07:04:37.396Z,67.59
2018-08-09T07:05:37.467Z,67.49
2018-08-09T07:06:37.333Z,67.69
2018-08-09T07:07:37.305Z,67.49
2018-08-09T07:08:37.273Z,67.40
2018-08-09T07:09:37.238Z,67.88
2018-08-09T07:10:37.208Z,67.46
2018-08-09T07:11:37.287Z,67.30
2018-08-09T07:12:37.209Z,67.79
2018-08-09T07:13:37.112Z,68.17
2018-08-09T07:14:37.091Z,68.17
2018-08-09T07:15:37.053Z,67.98
2018-08-09T07:16:37.043Z,68.08
2018-08-09T07:17:36.990Z,67.98
2018-08-09T07:18:36.960Z,68.17
2018-08-09T07:19:36.933Z,68.04
2018-08-09T07:20:36.915Z,68.62
2018-08-09T07:21:36.871Z,68.52
2018-08-09T07:22:36.837Z,69.01
2018-08-09T07:23:36.807Z,68.72
2018-08-09T07:24:36.772Z,68.91
2018-08-09T07:25:36.742Z,69.49
2018-08-09T07:26:36.720Z,69.20
2018-08-09T07:27:36.679Z,69.40
2018-08-09T07:28:36.648Z,69.40
2018-08-09T07:29:36.622Z,69.10
2018-08-09T07:30:36.588Z,69.49
2018-08-09T07:31:36.563Z,69.20
2018-08-09T07:32:36.825Z,69.49
2018-08-09T07:33:36.496Z,69.88
2018-08-09T07:34:36.461Z,70.07
2018-08-09T07:35:36.433Z,69.68
2018-08-09T07:36:36.413Z,69.88
2018-08-09T07:37:36.375Z,70.17
2018-08-09T07:38:36.451Z,69.78
2018-08-09T07:39:36.496Z,69.88
2018-08-09T07:40:36.275Z,69.98
2018-08-09T07:41:36.243Z,69.88
2018-08-09T07:42:36.216Z,69.98
2018-08-09T07:43:36.200Z,69.98
2018-08-09T07:44:36.260Z,69.98
2018-08-09T07:45:36.119Z,69.68
2018-08-09T07:46:36.091Z,69.78
2018-08-09T07:47:36.091Z,69.98
2018-08-09T07:48:36.152Z,69.59
2018-08-09T07:49:35.994Z,69.98
2018-08-09T07:50:35.972Z,70.07
2018-08-09T07:51:35.934Z,69.40
2018-08-09T07:52:35.905Z,70.07
2018-08-09T07:53:35.873Z,70.46
2018-08-09T07:54:35.839Z,70.36
2018-08-09T07:55:35.811Z,70.23
2018-08-09T07:56:35.776Z,69.68
2018-08-09T07:57:35.770Z,69.98
2018-08-09T07:58:35.717Z,70.26
2018-08-09T07:59:35.684Z,69.78
2018-08-09T08:00:35.648Z,70.94
2018-08-09T08:01:35.624Z,70.72
2018-08-09T08:02:35.587Z,70.75
2018-08-09T08:03:35.563Z,70.07
2018-08-09T08:04:35.562Z,70.46
2018-08-09T08:05:35.859Z,70.36
2018-08-09T08:06:35.462Z,70.46
2018-08-09T08:07:35.439Z,70.36
2018-08-09T08:08:35.402Z,70.65
2018-08-09T08:09:35.380Z,70.17
2018-08-09T08:10:35.339Z,70.26
2018-08-09T08:11:35.519Z,70.17
2018-08-09T08:12:35.276Z,70.07
2018-08-09T08:13:35.251Z,69.88
2018-08-09T08:14:35.356Z,69.78
2018-08-09T08:15:35.182Z,69.88
2018-08-09T08:16:35.151Z,70.75
2018-08-09T08:17:35.318Z,70.42
2018-08-09T08:18:35.095Z,70.62
2018-08-09T08:19:35.067Z,70.52
2018-08-09T08:20:35.059Z,71.10
2018-08-09T08:21:34.996Z,71.00
2018-08-09T08:22:34.964Z,70.62
2018-08-09T08:23:34.934Z,70.52
2018-08-09T08:24:34.908Z,71.10
2018-08-09T08:25:34.875Z,70.81
2018-08-09T08:26:34.916Z,71.00
2018-08-09T08:27:34.807Z,71.10
2018-08-09T08:28:34.773Z,70.81
2018-08-09T08:29:34.757Z,70.90
2018-08-09T08:30:34.714Z,71.00
2018-08-09T08:31:34.683Z,71.48
2018-08-09T08:32:34.652Z,71.39
2018-08-09T08:33:34.622Z,71.48
2018-08-09T08:34:34.618Z,71.58
2018-08-09T08:35:34.565Z,71.88
2018-08-09T08:36:34.526Z,71.68
2018-08-09T08:37:34.504Z,71.58
2018-08-09T08:38:34.771Z,71.58
2018-08-09T08:39:34.447Z,72.16
2018-08-09T08:40:34.403Z,71.88
2018-08-09T08:41:34.433Z,71.78
2018-08-09T08:42:34.338Z,72.16
2018-08-09T08:43:34.306Z,72.64
2018-08-09T08:44:34.478Z,72.45
2018-08-09T08:45:34.241Z,72.64
2018-08-09T08:46:34.216Z,72.84
2018-08-09T08:47:34.219Z,73.03
2018-08-09T08:48:34.153Z,72.84
2018-08-09T08:49:34.119Z,72.55
2018-08-09T08:50:34.088Z,72.94
2018-08-09T08:51:34.054Z,72.94
2018-08-09T08:52:34.043Z,72.74
2018-08-09T08:53:33.994Z,73.13
2018-08-09T08:54:33.987Z,73.61
2018-08-09T08:55:33.937Z,73.52
2018-08-09T08:56:33.902Z,73.80
2018-08-09T08:57:33.870Z,74.19
2018-08-09T08:58:33.836Z,74.19
2018-08-09T08:59:33.812Z,74.58
2018-08-09T09:00:33.776Z,74.48
2018-08-09T09:01:33.742Z,74.38
2018-08-09T09:02:33.716Z,74.48
2018-08-09T09:03:33.685Z,74.19
2018-08-09T09:04:33.651Z,74.48
2018-08-09T09:05:33.617Z,74.19
2018-08-09T09:06:33.584Z,74.19
2018-08-09T09:07:33.608Z,74.68
2018-08-09T09:08:33.534Z,74.68
2018-08-09T09:09:33.492Z,74.77
2018-08-09T09:10:33.462Z,74.96
2018-08-09T09:11:33.792Z,74.87
2018-08-09T09:12:33.402Z,74.96
2018-08-09T09:13:33.369Z,74.96
2018-08-09T09:14:33.342Z,75.35
2018-08-09T09:15:33.308Z,75.45
2018-08-09T09:16:33.290Z,75.35
2018-08-09T09:17:33.405Z,75.26
2018-08-09T09:18:33.206Z,75.12
2018-08-09T09:19:33.210Z,75.35
2018-08-09T09:20:33.148Z,75.31
2018-08-09T09:21:33.109Z,75.31
2018-08-09T09:22:33.079Z,75.35
2018-08-09T09:23:33.054Z,74.96
2018-08-09T09:24:33.029Z,75.54
2018-08-09T09:25:32.987Z,75.41
2018-08-09T09:26:33.016Z,75.60
2018-08-09T09:27:32.926Z,75.60
2018-08-09T09:28:32.891Z,75.60
2018-08-09T09:29:32.881Z,75.60
2018-08-09T09:30:32.831Z,76.32
2018-08-09T09:31:32.800Z,76.18
2018-08-09T09:32:32.763Z,76.57
2018-08-09T09:33:32.742Z,76.61
2018-08-09T09:34:32.700Z,76.80
2018-08-09T09:35:32.699Z,76.57
2018-08-09T09:36:32.641Z,77.05
2018-08-09T09:37:32.608Z,76.95
2018-08-09T09:38:32.575Z,76.95
2018-08-09T09:39:32.556Z,76.95
2018-08-09T09:40:32.514Z,76.57
2018-08-09T09:41:32.490Z,76.67
2018-08-09T09:42:32.456Z,76.32
2018-08-09T09:43:32.633Z,76.80
2018-08-09T09:44:32.636Z,76.47
2018-08-09T09:45:32.382Z,77.05
2018-08-09T09:46:32.325Z,76.90
2018-08-09T09:47:32.296Z,77.15
2018-08-09T09:48:32.258Z,76.90
2018-08-09T09:49:32.453Z,76.95
2018-08-09T09:50:32.400Z,76.67
2018-08-09T09:51:32.178Z,76.95
2018-08-09T09:52:32.147Z,76.95
2018-08-09T09:53:32.307Z,77.34
2018-08-09T09:54:32.111Z,77.83
2018-08-09T09:55:32.038Z,77.83
2018-08-09T09:56:32.024Z,77.92
2018-08-09T09:57:31.979Z,77.34
2018-08-09T09:58:31.952Z,77.63
2018-08-09T09:59:31.913Z,77.44
2018-08-09T10:00:31.886Z,77.34
2018-08-09T10:01:31.853Z,77.63
2018-08-09T10:02:31.820Z,77.34
2018-08-09T10:03:31.796Z,77.63
2018-08-09T10:04:31.761Z,77.92
2018-08-09T10:05:31.735Z,77.92
2018-08-09T10:06:31.715Z,77.92
2018-08-09T10:07:31.665Z,78.11
2018-08-09T10:08:31.636Z,78.02
2018-08-09T10:09:31.602Z,78.41
2018-08-09T10:10:31.578Z,78.59
2018-08-09T10:11:31.543Z,78.11
2018-08-09T10:12:31.508Z,78.11
2018-08-09T10:13:31.475Z,78.41
2018-08-09T10:14:31.444Z,78.41
2018-08-09T10:15:31.411Z,77.83
2018-08-09T10:16:31.380Z,77.92
2018-08-09T10:17:31.498Z,78.31
2018-08-09T10:18:31.319Z,78.59
2018-08-09T10:19:31.296Z,78.41
2018-08-09T10:20:31.265Z,78.41
2018-08-09T10:21:31.223Z,78.59
2018-08-09T10:22:31.195Z,78.11
2018-08-09T10:23:31.520Z,78.99
2018-08-09T10:24:31.151Z,79.08
2018-08-09T10:25:31.106Z,78.21
2018-08-09T10:26:31.068Z,78.41
2018-08-09T10:27:31.031Z,78.31
2018-08-09T10:28:31.007Z,78.59
2018-08-09T10:29:31.170Z,78.21
2018-08-09T10:30:30.942Z,78.79
2018-08-09T10:31:30.907Z,78.41
2018-08-09T10:32:30.878Z,78.41
2018-08-09T10:33:30.845Z,78.50
2018-08-09T10:34:30.812Z,78.11
2018-08-09T10:35:30.841Z,78.31
2018-08-09T10:36:30.755Z,78.11
2018-08-09T10:37:30.717Z,78.34
2018-08-09T10:38:30.686Z,78.25
2018-08-09T10:39:30.657Z,77.63
2018-08-09T10:40:30.623Z,77.53
2018-08-09T10:41:30.594Z,77.73
2018-08-09T10:42:30.560Z,77.44
2018-08-09T10:43:30.531Z,77.83
2018-08-09T10:44:30.506Z,77.73
2018-08-09T10:45:30.717Z,77.44
2018-08-09T10:46:30.437Z,77.86
2018-08-09T10:47:30.404Z,77.76
2018-08-09T10:48:30.370Z,77.57
2018-08-09T10:49:30.348Z,78.54
2018-08-09T10:50:30.314Z,78.25
2018-08-09T10:51:30.535Z,79.22
2018-08-09T10:52:30.253Z,79.41
2018-08-09T10:53:30.223Z,79.89
2018-08-09T10:54:30.230Z,80.08
2018-08-09T10:55:30.159Z,80.86
2018-08-09T10:56:30.147Z,80.86
2018-08-09T10:57:30.256Z,80.95
2018-08-09T10:58:30.066Z,81.05
2018-08-09T10:59:30.047Z,82.02
2018-08-09T11:00:29.995Z,81.92
2018-08-09T11:01:29.974Z,82.11
2018-08-09T11:02:29.937Z,81.73
2018-08-09T11:03:29.900Z,81.92
2018-08-09T11:04:29.868Z,81.82
2018-08-09T11:05:29.849Z,81.82
2018-08-09T11:06:29.807Z,81.73
2018-08-09T11:07:29.787Z,81.73
2018-08-09T11:08:29.751Z,81.73
2018-08-09T11:09:29.717Z,81.92
2018-08-09T11:10:29.682Z,81.82
2018-08-09T11:11:29.650Z,81.82
2018-08-09T11:12:29.629Z,82.50
2018-08-09T11:13:29.587Z,82.50
2018-08-09T11:14:29.558Z,82.60
2018-08-09T11:15:29.523Z,82.31
2018-08-09T11:16:29.493Z,82.98
2018-08-09T11:17:29.461Z,83.08
2018-08-09T11:18:29.571Z,82.98
2018-08-09T11:19:29.399Z,83.08
2018-08-09T11:20:29.368Z,83.08
2018-08-09T11:21:29.342Z,82.50
2018-08-09T11:22:29.322Z,82.60
2018-08-09T11:23:29.281Z,82.69
2018-08-09T11:24:29.544Z,82.21
2018-08-09T11:25:29.212Z,82.40
2018-08-09T11:26:29.184Z,82.40
2018-08-09T11:27:29.151Z,82.40
2018-08-09T11:28:29.124Z,82.89
2018-08-09T11:29:29.091Z,83.47
2018-08-09T11:30:29.205Z,83.27
2018-08-09T11:31:29.031Z,83.95
2018-08-09T11:32:28.992Z,84.63
2018-08-09T11:33:28.965Z,84.53
2018-08-09T11:34:28.940Z,84.91
2018-08-09T11:35:28.905Z,84.53
2018-08-09T11:36:28.877Z,84.63
2018-08-09T11:37:28.838Z,84.82
2018-08-09T11:38:28.875Z,84.53
2018-08-09T11:39:28.773Z,84.82
2018-08-09T11:40:28.744Z,84.72
2018-08-09T11:41:28.718Z,84.38
2018-08-09T11:42:28.681Z,84.86
2018-08-09T11:43:28.647Z,84.28
2018-08-09T11:44:28.620Z,83.99
2018-08-09T11:45:28.589Z,84.67
2018-08-09T11:46:28.657Z,85.05
2018-08-09T11:47:28.523Z,85.25
2018-08-09T11:48:28.496Z,84.77
2018-08-09T11:49:28.469Z,85.05
2018-08-09T11:50:28.440Z,85.25
2018-08-09T11:51:28.399Z,85.25
2018-08-09T11:52:28.469Z,85.05
2018-08-09T11:53:28.346Z,85.05
2018-08-09T11:54:28.328Z,85.15
2018-08-09T11:55:28.275Z,85.05
2018-08-09T11:56:28.329Z,84.86
2018-08-09T11:57:28.213Z,85.35
2018-08-09T11:58:28.194Z,85.35
2018-08-09T11:59:28.146Z,85.73
2018-08-09T12:00:28.117Z,85.05
2018-08-09T12:01:28.134Z,85.63
2018-08-09T12:02:28.355Z,85.44
2018-08-09T12:03:28.021Z,85.05
2018-08-09T12:04:28.022Z,84.77
2018-08-09T12:05:27.974Z,85.15
2018-08-09T12:06:27.928Z,85.25
2018-08-09T12:07:27.916Z,85.15
2018-08-09T12:08:27.872Z,84.86
2018-08-09T12:09:27.855Z,85.25
2018-08-09T12:10:27.805Z,84.86
2018-08-09T12:11:27.776Z,85.05
2018-08-09T12:12:27.743Z,85.35
2018-08-09T12:13:27.772Z,85.15
2018-08-09T12:14:27.686Z,85.15
2018-08-09T12:15:27.667Z,85.05
2018-08-09T12:16:27.625Z,85.15
2018-08-09T12:17:27.589Z,85.25
2018-08-09T12:18:27.562Z,84.86
2018-08-09T12:19:27.535Z,85.35
2018-08-09T12:20:27.504Z,85.53
2018-08-09T12:21:27.475Z,86.11
2018-08-09T12:22:27.445Z,86.11
2018-08-09T12:23:28.013Z,86.11
2018-08-09T12:24:27.377Z,86.41
2018-08-09T12:25:27.344Z,86.31
2018-08-09T12:26:27.307Z,86.60
2018-08-09T12:27:27.280Z,86.51
2018-08-09T12:28:27.241Z,86.69
2018-08-09T12:29:27.400Z,86.79
2018-08-09T12:30:27.213Z,86.69
2018-08-09T12:31:27.149Z,86.41
2018-08-09T12:32:27.119Z,86.21
2018-08-09T12:33:27.087Z,85.97
2018-08-09T12:34:27.056Z,85.58
2018-08-09T12:35:27.025Z,85.44
2018-08-09T12:36:27.033Z,86.16
2018-08-09T12:37:26.973Z,86.25
2018-08-09T12:38:26.968Z,86.16
2018-08-09T12:39:26.900Z,85.39
2018-08-09T12:40:26.867Z,85.15
2018-08-09T12:41:26.839Z,84.47
2018-08-09T12:42:26.812Z,83.36
2018-08-09T12:43:26.783Z,83.03
2018-08-09T12:44:26.747Z,82.54
2018-08-09T12:45:26.772Z,82.58
2018-08-09T12:46:26.690Z,81.81
2018-08-09T12:47:26.652Z,82.10
2018-08-09T12:48:26.690Z,82.20
2018-08-09T12:49:26.593Z,81.42
2018-08-09T12:50:26.662Z,82.10
2018-08-09T12:51:26.528Z,81.81
2018-08-09T12:52:26.503Z,82.00
2018-08-09T12:53:26.497Z,82.39
2018-08-09T12:54:26.434Z,83.26
2018-08-09T12:55:26.409Z,83.26
2018-08-09T12:56:26.478Z,82.10
2018-08-09T12:57:26.344Z,82.87